WetterOnline ( http://www.wetteronline.de )

Wetter aktuell Schwerin

Aktuelles Wetter: Schwerin (68m)

6-stündlich | Neueste Meldungen
Ortszeit Temperatur Wetter
Sa, 23.03. 1:00 8.0° C leicht bewölkt
Fr, 22.03. 19:00 10.3° C wolkig
Fr, 22.03. 13:00 9.6° C bewölkt
Fr, 22.03. 7:00 7.8° C Sprühregen
Fr, 22.03. 1:00 9.1° C bedeckt
Do, 21.03. 19:00 10.7° C bedeckt
Do, 21.03. 13:00 10.6° C bedeckt
Do, 21.03. 7:00 8.4° C bedeckt
Ortszeit Temperatur Wetter
Sa, 23.03. 5:00 6.0° C Nebel
Sa, 23.03. 4:40 6.1° C Nebel
Sa, 23.03. 4:30 6.1° C wolkig
Sa, 23.03. 4:20 6.1° C wolkig
Sa, 23.03. 4:10 6.3° C wolkig
Sa, 23.03. 4:00 6.3° C wolkig
Sa, 23.03. 3:50 6.3° C wolkig
Sa, 23.03. 3:30 6.7° C leicht bewölkt
Sa, 23.03. 3:00 7.1° C leicht bewölkt
Sa, 23.03. 2:30 7.5° C wolkenlos
Sa, 23.03. 2:00 7.7° C wolkenlos
Ortszeit Relative Feuchte Sichtweite
Sa, 23.03. 1:00 92% 3.1 km
Fr, 22.03. 19:00 85% 7 km
Fr, 22.03. 13:00 85% 6 km
Fr, 22.03. 7:00 97% 2.5 km
Fr, 22.03. 1:00 90% 6 km
Do, 21.03. 19:00 82% 10 km
Do, 21.03. 13:00 81% 7 km
Do, 21.03. 7:00 94% 2.3 km
Ortszeit Relative Feuchte Sichtweite
Sa, 23.03. 5:00 98% 100 m
Sa, 23.03. 4:40 99% -
Sa, 23.03. 4:30 99% 1.1 km
Sa, 23.03. 4:20 99% -
Sa, 23.03. 4:10 97% -
Sa, 23.03. 4:00 99% 1.3 km
Sa, 23.03. 3:50 99% -
Sa, 23.03. 3:30 97% 1.7 km
Sa, 23.03. 3:00 96% 2.2 km
Sa, 23.03. 2:30 95% 2.4 km
Sa, 23.03. 2:00 94% 2.6 km
Ortszeit Niederschlagsmenge Niederschlagsart
Sa, 23.03. 1:00 0.0 l/m2 in 6 Std. -
Fr, 22.03. 19:00 0.1 l/m2 in 12 Std. -
Fr, 22.03. 13:00 0.1 l/m2 in 6 Std. Sprühregen
Fr, 22.03. 7:00 0.1 l/m2 in 12 Std. Sprühregen
Fr, 22.03. 1:00 0.0 l/m2 in 6 Std. -
Do, 21.03. 19:00 0.0 l/m2 in 12 Std. -
Do, 21.03. 13:00 0.0 l/m2 in 6 Std. -
Do, 21.03. 7:00 0.0 l/m2 in 12 Std. -
Ortszeit Niederschlagsmenge Niederschlagsart
Sa, 23.03. 5:00 0.0 l/m2 in 1 Std. -
Sa, 23.03. 4:40 keine Meldung -
Sa, 23.03. 4:30 0.0 l/m2 in 1 Std. -
Sa, 23.03. 4:20 keine Meldung -
Sa, 23.03. 4:10 keine Meldung -
Sa, 23.03. 4:00 0.0 l/m2 in 1 Std. -
Sa, 23.03. 3:50 keine Meldung -
Sa, 23.03. 3:30 0.0 l/m2 in 1 Std. -
Sa, 23.03. 3:00 0.0 l/m2 in 1 Std. -
Sa, 23.03. 2:30 0.0 l/m2 in 1 Std. -
Sa, 23.03. 2:00 0.0 l/m2 in 1 Std. -
Ortszeit Stärke Spitze Richtung
km/h Bft. km/h Grad Sektor
Sa, 23.03. 1:00 9 2 26 180° S
Fr, 22.03. 19:00 11 2 22 130° SO
Fr, 22.03. 13:00 9 2 24 190° S
Fr, 22.03. 7:00 4 1 25 360° N
Fr, 22.03. 1:00 11 2 29 260° W
Do, 21.03. 19:00 9 2 37 280° W
Do, 21.03. 13:00 22 4 40 250° W
Do, 21.03. 7:00 15 3 22 230° SW
Ortszeit Stärke Spitze Richtung
km/h Bft. km/h Grad Sektor
Sa, 23.03. 5:00 9 2 17 230° SW
Sa, 23.03. 4:40 11 2 - 240° SW
Sa, 23.03. 4:30 9 2 15 220° SW
Sa, 23.03. 4:20 9 2 - 220° SW
Sa, 23.03. 4:10 9 2 - 210° SW
Sa, 23.03. 4:00 7 2 14 210° SW
Sa, 23.03. 3:50 7 2 - 210° SW
Sa, 23.03. 3:30 7 2 15 210° SW
Sa, 23.03. 3:00 7 2 22 200° S
Sa, 23.03. 2:30 9 2 22 190° S
Sa, 23.03. 2:00 7 2 22 190° S
Ortszeit Untergrenze Bedeckung Gattung
total tief tief mittel hoch
Sa, 23.03. 1:00 12000 m 4/8 0/8 - - -
Fr, 22.03. 19:00 12000 m 7/8 0/8 - - -
Fr, 22.03. 13:00 240 m 7/8 7/8 - - -
Fr, 22.03. 7:00 120 m 8/8 8/8 - - -
Fr, 22.03. 1:00 270 m 8/8 8/8 - - -
Do, 21.03. 19:00 510 m 8/8 8/8 - - -
Do, 21.03. 13:00 390 m 8/8 8/8 - - -
Do, 21.03. 7:00 210 m 8/8 8/8 - - -
Ortszeit Bedeckungsgrad in Achtel und Wolkenuntergrenze
Sa, 23.03. 5:00 8(<30m) 8(10500m)
Sa, 23.03. 4:40 7(30m) 8(10500m)
Sa, 23.03. 4:30 3(30m) 8(10500m) 8(10500m)
Sa, 23.03. 4:20 3(30m) 8(10500m) 8(10500m)
Sa, 23.03. 4:10 8(10500m) 8(10500m)
Sa, 23.03. 4:00 8(10500m) 8(10500m)
Sa, 23.03. 3:50 8(10500m)
Sa, 23.03. 3:30 5(10500m)
Sa, 23.03. 3:00 3(10500m)
Sa, 23.03. 2:30 keine Wolken
Sa, 23.03. 2:00 keine Wolken
Ortszeit Luftdruck NN (hPa) Tendenz (hPa in 3 Std.)
Sa, 23.03. 1:00 1026 - 1,8
Fr, 22.03. 19:00 1028 - 1,7
Fr, 22.03. 13:00 1032 - 1,2
Fr, 22.03. 7:00 1034 + 1,1
Fr, 22.03. 1:00 1033 - 0,2
Do, 21.03. 19:00 1032 + 0,1
Do, 21.03. 13:00 1033 + 0,3
Do, 21.03. 7:00 1032 - 0,1
Ortszeit Luftdruck NN (hPa) Tendenz (hPa in 3 Std.)
Sa, 23.03. 5:00 1025 - 0,5
Sa, 23.03. 4:40 1025 keine Meldung
Sa, 23.03. 4:30 1025 - 0,9
Sa, 23.03. 4:20 1025 keine Meldung
Sa, 23.03. 4:10 1025 keine Meldung
Sa, 23.03. 4:00 1025 - 1,3
Sa, 23.03. 3:50 1025 keine Meldung
Sa, 23.03. 3:30 1025 - 1,7
Sa, 23.03. 3:00 1025 - 2,0
Sa, 23.03. 2:30 1025 - 2,1
Sa, 23.03. 2:00 1025 - 2,1
Ortszeit Schneehöhe (cm)
Sa, 23.03. 1:00 0
Fr, 22.03. 19:00 0
Fr, 22.03. 13:00 0
Fr, 22.03. 7:00 0
Fr, 22.03. 1:00 0
Do, 21.03. 19:00 0
Do, 21.03. 13:00 0
Do, 21.03. 7:00 0
Ortszeit Schneehöhe (cm)
Sa, 23.03. 5:00 0
Sa, 23.03. 4:40 0
Sa, 23.03. 4:30 0
Sa, 23.03. 4:20 0
Sa, 23.03. 4:10 0
Sa, 23.03. 4:00 0
Sa, 23.03. 3:50 0
Sa, 23.03. 3:30 0
Sa, 23.03. 3:00 0
Sa, 23.03. 2:30 0
Sa, 23.03. 2:00 0
Link zu dieser Seite / Seite empfehlen

Das Wetter in ...